Time;durP1;ratioP1;P1;durP2;ratioP2;P2;SDS_P1;SDS_P2;PMS_P1;PMS_P2;Temp;Humidity;BMP_temperature;BMP_pressure;BME280_temperature;BME280_humidity;BME280_pressure;Samples;Min_cycle;Max_cycle;Signal;HPM_P1;HPM_P2
2022/08/07 00:01:20;;;;;;;2.63;1.70;;;15.90;74.60;;;;;;5130033;27;20023;-77
2022/08/07 00:03:46;;;;;;;2.22;1.27;;;15.90;74.80;;;;;;5127233;27;20152;-73
2022/08/07 00:06:12;;;;;;;5.32;1.38;;;15.80;74.90;;;;;;5131650;27;20110;-73
2022/08/07 00:08:38;;;;;;;1.25;0.95;;;15.80;74.90;;;;;;5129915;27;20047;-73
2022/08/07 00:11:04;;;;;;;4.03;1.25;;;15.80;75.10;;;;;;5131386;27;20034;-73
2022/08/07 00:13:30;;;;;;;2.63;1.20;;;15.80;75.30;;;;;;5131014;27;20161;-73
2022/08/07 00:15:57;;;;;;;1.95;1.40;;;15.80;75.40;;;;;;5132360;27;20059;-72
2022/08/07 00:18:26;;;;;;;1.65;1.20;;;15.70;75.40;;;;;;5130044;27;20027;-78
2022/08/07 00:20:58;;;;;;;2.17;1.40;;;15.70;75.30;;;;;;5132210;27;20033;-73
2022/08/07 00:23:24;;;;;;;2.42;1.25;;;15.70;75.80;;;;;;5131017;27;20038;-78
2022/08/07 00:25:50;;;;;;;2.97;1.00;;;15.70;75.90;;;;;;5130147;27;20047;-73
2022/08/07 00:28:16;;;;;;;1.95;0.93;;;15.60;76.00;;;;;;5131871;27;20031;-76
2022/08/07 00:30:41;;;;;;;3.20;1.13;;;15.60;76.00;;;;;;5131463;27;20049;-73
2022/08/07 00:33:07;;;;;;;2.13;1.40;;;15.60;76.10;;;;;;5129411;27;20019;-74
2022/08/07 00:35:33;;;;;;;2.25;1.23;;;15.60;76.30;;;;;;5129926;27;20103;-73
2022/08/07 00:37:59;;;;;;;3.58;1.30;;;15.60;76.30;;;;;;5131774;27;20031;-73
2022/08/07 00:40:26;;;;;;;4.13;1.55;;;15.50;76.40;;;;;;5130710;27;20023;-74
2022/08/07 00:42:52;;;;;;;2.13;1.35;;;15.50;76.60;;;;;;5131824;27;20019;-73
2022/08/07 00:45:20;;;;;;;1.15;1.05;;;15.40;76.60;;;;;;5132080;27;20023;-73
2022/08/07 00:47:45;;;;;;;1.88;1.08;;;15.40;76.30;;;;;;5131026;27;20038;-74
2022/08/07 00:50:11;;;;;;;1.63;0.93;;;15.40;75.80;;;;;;5131883;27;20030;-73
2022/08/07 00:52:37;;;;;;;2.00;1.02;;;15.50;75.70;;;;;;5129792;27;20029;-73
2022/08/07 00:55:03;;;;;;;1.75;1.30;;;15.40;75.80;;;;;;5112741;27;20028;-77
2022/08/07 00:57:29;;;;;;;2.72;0.90;;;15.40;76.00;;;;;;5128930;27;20023;-73
2022/08/07 00:59:55;;;;;;;1.35;1.05;;;15.40;76.30;;;;;;5129684;27;20068;-72
2022/08/07 01:02:22;;;;;;;1.33;1.20;;;15.40;76.80;;;;;;5129475;27;20126;-78
2022/08/07 01:04:48;;;;;;;1.13;0.85;;;15.40;76.80;;;;;;5130084;27;20490;-73
2022/08/07 01:07:15;;;;;;;1.58;1.20;;;15.30;77.30;;;;;;5131409;27;20059;-73
2022/08/07 01:09:40;;;;;;;1.88;1.08;;;15.20;77.40;;;;;;5129433;27;20098;-73
2022/08/07 01:12:06;;;;;;;1.27;0.90;;;15.20;77.40;;;;;;5128429;27;20111;-74
2022/08/07 01:14:32;;;;;;;3.30;1.20;;;15.20;77.60;;;;;;5129993;27;20034;-74
2022/08/07 01:16:58;;;;;;;2.67;1.15;;;15.20;77.80;;;;;;5131762;27;20027;-73
2022/08/07 01:19:27;;;;;;;3.63;1.10;;;15.10;77.70;;;;;;5130157;27;20034;-74
2022/08/07 01:21:53;;;;;;;1.10;0.63;;;15.10;77.90;;;;;;5131644;27;20023;-74
2022/08/07 01:24:20;;;;;;;2.50;1.10;;;15.10;77.80;;;;;;5130268;27;20015;-76
2022/08/07 01:26:46;;;;;;;2.40;0.88;;;15.10;78.00;;;;;;5129335;27;20046;-74
2022/08/07 01:29:13;;;;;;;0.80;0.80;;;15.10;78.40;;;;;;5129472;27;20110;-73
2022/08/07 01:31:39;;;;;;;1.33;0.90;;;15.00;78.30;;;;;;5129295;27;20019;-73
2022/08/07 01:34:05;;;;;;;1.33;0.80;;;15.00;78.60;;;;;;5130844;27;20357;-75
2022/08/07 01:36:31;;;;;;;2.00;1.10;;;14.90;78.70;;;;;;5126253;28;20092;-73
2022/08/07 01:38:57;;;;;;;1.00;0.90;;;14.90;79.00;;;;;;5131113;28;20483;-73
2022/08/07 01:41:24;;;;;;;1.58;0.98;;;14.90;79.10;;;;;;5127567;28;20063;-79
2022/08/07 01:43:50;;;;;;;1.25;0.85;;;14.90;79.40;;;;;;5129346;28;20015;-74
2022/08/07 01:46:17;;;;;;;1.73;1.20;;;14.80;79.60;;;;;;5131243;28;20027;-75
2022/08/07 01:48:45;;;;;;;1.88;1.08;;;14.80;80.10;;;;;;5129691;28;20019;-74
2022/08/07 01:51:16;;;;;;;0.95;0.85;;;14.80;80.40;;;;;;5131307;28;20027;-73
2022/08/07 01:53:45;;;;;;;1.85;1.23;;;14.80;80.60;;;;;;5128539;28;20079;-73
2022/08/07 01:56:21;;;;;;;2.67;0.90;;;14.80;80.60;;;;;;5129914;28;20027;-73
2022/08/07 01:58:56;;;;;;;1.85;1.00;;;14.80;80.60;;;;;;5125791;27;20392;-73
2022/08/07 02:01:30;;;;;;;2.45;0.95;;;14.80;80.70;;;;;;5122152;27;20035;-78
2022/08/07 02:04:06;;;;;;;2.42;0.95;;;14.80;81.00;;;;;;5123480;27;20027;-73
2022/08/07 02:06:34;;;;;;;2.13;1.10;;;14.70;81.30;;;;;;5129347;28;20503;-73
2022/08/07 02:09:10;;;;;;;1.90;0.98;;;14.70;81.50;;;;;;5125804;28;20059;-75
2022/08/07 02:11:40;;;;;;;3.65;1.10;;;14.70;81.90;;;;;;5129267;28;20023;-74
2022/08/07 02:14:07;;;;;;;2.67;0.82;;;14.60;82.00;;;;;;5131335;28;20054;-73
2022/08/07 02:16:34;;;;;;;1.33;0.80;;;14.60;81.80;;;;;;5129903;28;20027;-73
2022/08/07 02:19:10;;;;;;;1.45;0.90;;;14.50;82.50;;;;;;5131133;28;20371;-73
2022/08/07 02:21:38;;;;;;;4.50;1.00;;;14.50;82.60;;;;;;5127339;28;20020;-73
2022/08/07 02:24:05;;;;;;;2.80;1.10;;;14.50;82.80;;;;;;5130676;27;20051;-73
2022/08/07 02:26:34;;;;;;;3.22;1.00;;;14.50;83.00;;;;;;5131346;27;20479;-73
2022/08/07 02:29:03;;;;;;;2.95;0.90;;;14.50;83.00;;;;;;5132986;27;20031;-73
2022/08/07 02:31:30;;;;;;;1.77;1.15;;;14.50;83.10;;;;;;5133135;27;20027;-73
2022/08/07 02:33:57;;;;;;;1.23;0.90;;;14.40;83.10;;;;;;5134208;27;20027;-74
2022/08/07 02:36:24;;;;;;;1.60;0.80;;;14.40;83.30;;;;;;5132786;27;20491;-78
2022/08/07 02:38:52;;;;;;;3.20;1.02;;;14.40;83.50;;;;;;5133640;27;20043;-73
2022/08/07 02:41:18;;;;;;;3.63;1.15;;;14.40;83.90;;;;;;5134037;27;20023;-74
2022/08/07 02:43:45;;;;;;;2.20;1.42;;;14.40;84.10;;;;;;5132938;27;20019;-74
2022/08/07 02:46:11;;;;;;;1.40;1.00;;;14.40;84.20;;;;;;5134148;27;20063;-73
2022/08/07 02:48:37;;;;;;;3.20;1.20;;;14.30;84.30;;;;;;5133294;27;20031;-74
2022/08/07 02:51:10;;;;;;;2.03;0.95;;;14.30;84.70;;;;;;5134102;27;20023;-74
2022/08/07 02:53:38;;;;;;;2.00;1.20;;;14.30;84.90;;;;;;5133044;27;20019;-73
2022/08/07 02:56:07;;;;;;;1.48;0.82;;;14.30;85.20;;;;;;5132994;27;20029;-74
2022/08/07 02:58:34;;;;;;;1.30;1.05;;;14.30;85.30;;;;;;5128089;27;20034;-75
2022/08/07 03:01:02;;;;;;;2.70;0.90;;;14.20;85.60;;;;;;5132828;27;20090;-74
2022/08/07 03:03:31;;;;;;;1.25;1.02;;;14.20;86.10;;;;;;5130433;27;20027;-74
2022/08/07 03:05:58;;;;;;;2.03;1.10;;;14.30;87.00;;;;;;5132175;27;20110;-74
2022/08/07 03:08:24;;;;;;;1.65;1.05;;;14.30;92.40;;;;;;5130773;27;20047;-79
2022/08/07 03:10:50;;;;;;;1.05;0.90;;;14.20;99.90;;;;;;5131371;27;20023;-73
2022/08/07 03:13:16;;;;;;;1.00;0.80;;;;;;;;;;5131161;27;20076;-73
2022/08/07 03:15:43;;;;;;;2.67;0.80;;;;;;;;;;5131420;27;20913;-73
2022/08/07 03:18:09;;;;;;;4.18;1.10;;;;;;;;;;5132326;27;20027;-74
2022/08/07 03:20:36;;;;;;;2.45;1.13;;;;;;;;;;5129981;27;20083;-76
2022/08/07 03:23:02;;;;;;;0.95;0.82;;;;;;;;;;5131735;27;20023;-74
2022/08/07 03:25:29;;;;;;;1.33;0.80;;;;;;;;;;5130999;27;20043;-74
2022/08/07 03:27:56;;;;;;;3.33;1.00;;;;;;;;;;5131493;27;20554;-74
2022/08/07 03:30:22;;;;;;;0.75;0.60;;;;;;;;;;5131181;27;20456;-79
2022/08/07 03:32:49;;;;;;;1.20;1.10;;;;;;;;;;5131313;27;20022;-74
2022/08/07 03:35:16;;;;;;;1.95;0.82;;;;;;;;;;5131318;27;20039;-73
2022/08/07 03:37:43;;;;;;;2.17;1.00;;;;;;;;;;5129600;27;20483;-73
2022/08/07 03:40:10;;;;;;;2.50;1.10;;;;;;;;;;5130241;27;20023;-74
2022/08/07 03:42:36;;;;;;;0.70;0.70;;;;;;;;;;5131219;27;20062;-76
2022/08/07 03:45:02;;;;;;;1.00;0.95;;;;;;;;;;5131563;27;20068;-73
2022/08/07 03:47:28;;;;;;;1.90;1.00;;;;;;;;;;5130637;27;20019;-73
2022/08/07 03:49:56;;;;;;;1.10;0.85;;;;;;;;;;5131537;27;20037;-74
2022/08/07 03:52:23;;;;;;;3.05;1.27;;;;;;;;;;5128228;27;20080;-78
2022/08/07 03:54:49;;;;;;;3.08;1.15;;;;;;;;;;5129565;27;20038;-73
2022/08/07 03:57:15;;;;;;;2.53;0.93;;;;;;;;;;5129592;27;20023;-73
2022/08/07 03:59:42;;;;;;;2.15;0.90;;;;;;;;;;5130390;27;20071;-74
2022/08/07 04:02:08;;;;;;;1.13;0.88;;;;;;;;;;5111085;27;20436;-74
2022/08/07 04:04:34;;;;;;;1.27;0.90;;;;;;;;;;5129869;27;20091;-73
2022/08/07 04:07:00;;;;;;;1.33;0.90;;;;;;;;;;5131165;27;20104;-72
2022/08/07 04:09:27;;;;;;;0.95;0.88;;;;;;;;;;5129902;27;20047;-73
2022/08/07 04:11:53;;;;;;;2.00;1.08;;;;;;;;;;5129710;27;20027;-74
2022/08/07 04:14:20;;;;;;;1.35;0.80;;;;;;;;;;5130972;27;20022;-76
2022/08/07 04:16:50;;;;;;;2.25;1.00;;;;;;;;;;5130613;27;20027;-74
2022/08/07 04:19:16;;;;;;;1.10;0.98;;;;;;;;;;5130946;27;20023;-74
2022/08/07 04:21:42;;;;;;;1.80;1.05;;;;;;;;;;5126028;27;20034;-73
2022/08/07 04:24:09;;;;;;;2.97;0.90;;;;;;;;;;5130918;27;20076;-73
2022/08/07 04:26:36;;;;;;;2.25;0.90;;;;;;;;;;5129496;27;20119;-73
2022/08/07 04:29:02;;;;;;;1.77;1.02;;;;;;;;;;5129484;27;20046;-73
2022/08/07 04:31:28;;;;;;;4.18;1.30;;;;;;;;;;5128683;27;20020;-72
2022/08/07 04:33:54;;;;;;;1.75;1.08;;;;;;;;;;5129599;27;20062;-73
2022/08/07 04:36:20;;;;;;;1.38;1.27;;;;;;;;;;5130241;27;20050;-77
2022/08/07 04:38:47;;;;;;;1.48;0.93;;;;;;;;;;5127412;27;20468;-73
2022/08/07 04:41:13;;;;;;;8.18;1.15;;;;;;;;;;5130608;27;20015;-73
2022/08/07 04:43:42;;;;;;;1.20;0.80;;;;;;;;;;5129612;27;20414;-73
2022/08/07 04:46:11;;;;;;;2.85;1.20;;;;;;;;;;5129045;27;20015;-73
2022/08/07 04:48:57;;;;;;;1.38;1.27;;;;;;;;;;5128923;27;20105;-75
2022/08/07 04:51:31;;;;;;;1.52;1.15;;;;;;;;;;5127094;27;20023;-79
2022/08/07 04:54:03;;;;;;;1.88;1.00;;;;;;;;;;5129709;27;20028;-74
2022/08/07 04:56:36;;;;;;;1.38;0.90;;;;;;;;;;5128856;27;20027;-73
2022/08/07 04:59:06;;;;;;;1.85;0.90;;;;;;;;;;5127788;27;20372;-73
2022/08/07 05:01:38;;;;;;;1.15;1.08;;;;;;;;;;5127963;27;20436;-73
2022/08/07 05:04:43;;;;;;;2.05;0.98;;;;;;;;;;5131760;27;20038;-74
2022/08/07 05:07:20;;;;;;;2.40;1.08;;;;;;;;;;5084904;28;20123;-74
2022/08/07 05:09:58;;;;;;;1.67;1.30;;;;;;;;;;5087903;28;20028;-74
2022/08/07 05:12:43;;;;;;;1.30;1.20;;;;;;;;;;5082319;28;20040;-79
2022/08/07 05:15:18;;;;;;;1.42;0.98;;;;;;;;;;5086394;28;20031;-75
2022/08/07 05:17:46;;;;;;;1.33;1.08;;;;;;;;;;5083791;28;20122;-74
2022/08/07 05:20:14;;;;;;;1.77;1.30;;;;;;;;;;5084700;28;20040;-75
2022/08/07 05:22:41;;;;;;;3.03;1.00;;;;;;;;;;5085258;28;20043;-73
2022/08/07 05:25:09;;;;;;;1.85;1.27;;;;;;;;;;5084758;28;20024;-73
2022/08/07 05:27:35;;;;;;;1.60;1.30;;;;;;;;;;5066290;28;20090;-73
2022/08/07 05:30:01;;;;;;;1.90;1.45;;;;;;;;;;5066699;28;20035;-73
2022/08/07 05:32:28;;;;;;;2.22;2.03;;;;;;;;;;5066655;28;20021;-74
2022/08/07 05:34:55;;;;;;;2.35;2.05;;;;;;;;;;5067644;28;20025;-73
2022/08/07 05:37:21;;;;;;;4.25;1.77;;;;;;;;;;5071580;28;20119;-84
2022/08/07 05:39:47;;;;;;;1.67;1.58;;;;;;;;;;5091604;28;20073;-79
2022/08/07 05:42:14;;;;;;;3.63;2.40;;;;;;;;;;5110891;28;20020;-80
2022/08/07 05:44:40;;;;;;;2.70;2.30;;;;;;;;;;5089388;28;20012;-77
2022/08/07 05:47:07;;;;;;;3.10;2.60;;;;;;;;;;5110116;28;20019;-79
2022/08/07 05:49:34;;;;;;;2.63;2.28;;;;;;;;;;5109828;28;20016;-76
2022/08/07 05:52:00;;;;;;;3.17;2.67;;;;;;;;;;5108830;28;20035;-76
2022/08/07 05:54:26;;;;;;;3.83;2.45;;;;;;;;;;5109523;28;20020;-77
2022/08/07 05:56:53;;;;;;;5.30;2.13;;;;;;;;;;5110220;28;20024;-77
2022/08/07 05:59:20;;;;;;;3.22;2.58;;;;;;;;;;5111900;28;20081;-76
2022/08/07 06:01:47;;;;;;;2.67;2.05;;;;;;;;;;5113099;28;20091;-79
2022/08/07 06:04:17;;;;;;;3.55;2.75;;;;;;;;;;5110994;28;20310;-76
2022/08/07 06:06:43;;;;;;;5.18;2.88;;;;;;;;;;5111981;28;20559;-77
2022/08/07 06:09:09;;;;;;;2.72;2.28;;;;;;;;;;5114031;28;20055;-76
2022/08/07 06:11:36;;;;;;;2.13;2.03;;;;;;;;;;5113016;28;20048;-76
2022/08/07 06:14:03;;;;;;;3.88;3.00;;;;;;;;;;5114687;28;20495;-77
2022/08/07 06:16:32;;;;;;;2.80;2.50;;;;;;;;;;5112760;28;20028;-76
2022/08/07 06:19:00;;;;;;;3.28;2.75;;;;;;;;;;5112702;28;20019;-76
2022/08/07 06:21:26;;;;;;;3.50;2.60;;;;;;;;;;5111549;28;20019;-78
2022/08/07 06:23:52;;;;;;;3.58;2.83;;;;;;;;;;5113303;28;20045;-75
2022/08/07 06:26:19;;;;;;;6.18;2.75;;;;;;;;;;5124851;27;20122;-76
2022/08/07 06:28:49;;;;;;;4.43;3.20;;;;;;;;;;5134251;27;20031;-75
2022/08/07 06:31:15;;;;;;;4.18;2.55;;;;;;;;;;5129740;27;20088;-76
2022/08/07 06:33:41;;;;;;;5.20;2.65;;;;;;;;;;5131648;27;20242;-76
2022/08/07 06:36:07;;;;;;;3.50;3.03;;;;;;;;;;5134225;27;20019;-76
2022/08/07 06:38:33;;;;;;;4.05;3.05;;;;;;;;;;5131985;27;20106;-75
2022/08/07 06:41:00;;;;;;;3.60;2.85;;;;;;;;;;5134081;27;20088;-76
2022/08/07 06:43:26;;;;;;;3.80;3.00;;;;;;;;;;5132893;27;20023;-76
2022/08/07 06:45:52;;;;;;;4.43;2.95;;;;;;;;;;5134813;27;20341;-76
2022/08/07 06:48:24;;;;;;;2.65;2.45;;;;;;;;;;5133713;27;20484;-77
2022/08/07 06:50:54;;;;;;;5.47;2.95;;;;;;;;;;5131450;27;20027;-77
2022/08/07 06:53:25;;;;;;;3.20;2.90;;;;;;;;;;5133103;27;20023;-78
2022/08/07 06:55:54;;;;;;;2.92;2.63;;;;;;;;;;5133287;27;20425;-76
2022/08/07 06:58:24;;;;;;;2.85;2.65;;;;;;;;;;5131846;27;20027;-78
2022/08/07 07:00:51;;;;;;;6.30;3.30;;;18.90;99.90;;;;;;5114332;27;20023;-76
2022/08/07 07:03:16;;;;;;;4.15;3.20;;;19.10;99.90;;;;;;5128660;27;20099;-77
2022/08/07 07:05:42;;;;;;;3.60;3.05;;;19.20;99.90;;;;;;5133676;27;20663;-76
2022/08/07 07:08:11;;;;;;;3.55;2.60;;;19.20;99.90;;;;;;5133507;27;20038;-78
2022/08/07 07:10:37;;;;;;;2.95;2.53;;;19.30;99.90;;;;;;5130843;27;20039;-76
2022/08/07 07:13:15;;;;;;;3.83;2.65;;;19.50;99.90;;;;;;5134004;27;20164;-76
2022/08/07 07:15:56;;;;;;;5.65;2.42;;;19.60;99.90;;;;;;5132137;27;20577;-77
2022/08/07 07:18:24;;;;;;;;;;;19.70;94.70;;;;;;5130393;27;20027;-78
2022/08/07 07:20:58;;;;;;;4.78;2.53;;;19.80;94.40;;;;;;5127130;27;19907;-77
2022/08/07 07:23:25;;;;;;;2.85;2.30;;;20.00;94.40;;;;;;5132346;27;20035;-79
2022/08/07 07:25:55;;;;;;;2.53;2.33;;;20.10;94.30;;;;;;5129983;27;20043;-77
2022/08/07 07:28:26;;;;;;;4.57;2.55;;;20.20;93.60;;;;;;5108623;27;20083;-80
2022/08/07 07:31:18;;;;;;;3.20;2.47;;;20.30;93.50;;;;;;5126335;27;20074;-77
2022/08/07 07:33:47;;;;;;;2.65;2.45;;;20.40;94.00;;;;;;5130286;27;20420;-75
2022/08/07 07:36:13;;;;;;;2.08;1.90;;;20.60;93.20;;;;;;5131623;27;20023;-76
2022/08/07 07:38:41;;;;;;;5.03;2.42;;;20.60;92.80;;;;;;5130815;27;20106;-76
2022/08/07 07:41:10;;;;;;;2.90;1.90;;;20.80;92.90;;;;;;5130386;27;20034;-77
2022/08/07 07:43:39;;;;;;;1.58;1.48;;;20.90;91.90;;;;;;5122977;27;20042;-77
2022/08/07 07:46:07;;;;;;;3.80;1.80;;;21.10;90.40;;;;;;5131541;27;20027;-77
2022/08/07 07:48:34;;;;;;;5.03;1.35;;;21.20;89.60;;;;;;5129147;27;20384;-75
2022/08/07 07:51:01;;;;;;;3.22;1.60;;;21.30;88.80;;;;;;5112194;27;20081;-76
2022/08/07 07:53:29;;;;;;;2.22;1.35;;;21.30;89.10;;;;;;5130139;27;20099;-76
2022/08/07 07:55:58;;;;;;;1.83;1.20;;;21.50;86.90;;;;;;5130454;27;20102;-75
2022/08/07 07:58:34;;;;;;;2.90;1.40;;;21.60;85.30;;;;;;5128785;27;20035;-79
2022/08/07 08:00:59;;;;;;;2.80;1.27;;;21.70;84.10;;;;;;5122667;27;20038;-76
2022/08/07 08:03:28;;;;;;;1.63;1.30;;;21.80;83.10;;;;;;5129839;27;20767;-76
2022/08/07 08:05:54;;;;;;;1.30;1.20;;;21.80;83.20;;;;;;5131537;27;20050;-77
2022/08/07 08:08:25;;;;;;;2.88;1.70;;;21.80;83.00;;;;;;5130837;27;20058;-76
2022/08/07 08:10:52;;;;;;;1.80;1.13;;;22.00;82.10;;;;;;5129706;27;20031;-75
2022/08/07 08:13:21;;;;;;;1.88;1.20;;;22.10;81.80;;;;;;5130823;27;20027;-75
2022/08/07 08:15:48;;;;;;;1.45;1.10;;;22.30;81.60;;;;;;5129194;27;20439;-76
2022/08/07 08:18:14;;;;;;;1.63;1.27;;;22.40;81.00;;;;;;5129617;27;20019;-75
2022/08/07 08:20:42;;;;;;;1.10;1.00;;;22.60;79.60;;;;;;5129035;27;20027;-78
2022/08/07 08:28:44;;;;;;;3.08;1.15;;;22.90;77.80;;;;;;5129122;27;20033;-77
2022/08/07 08:31:14;;;;;;;4.18;2.42;;;23.00;77.30;;;;;;5130588;27;20024;-80
2022/08/07 08:33:41;;;;;;;2.55;1.20;;;22.70;77.00;;;;;;5125505;27;20788;-80
2022/08/07 08:36:09;;;;;;;2.40;1.45;;;22.60;77.20;;;;;;5124036;27;20084;-79
2022/08/07 08:38:42;;;;;;;2.45;1.10;;;22.70;76.70;;;;;;5126154;27;20399;-78
2022/08/07 08:41:28;;;;;;;1.50;1.02;;;22.80;76.20;;;;;;5126029;27;20380;-78
2022/08/07 08:44:11;;;;;;;1.48;1.02;;;22.80;75.90;;;;;;5124592;27;20480;-80
2022/08/07 08:47:03;;;;;;;1.83;1.20;;;22.90;75.20;;;;;;5123599;27;20038;-78
2022/08/07 08:49:32;;;;;;;0.80;0.77;;;23.00;74.00;;;;;;5124286;27;20491;-81
2022/08/07 08:52:15;;;;;;;0.80;0.80;;;23.00;72.40;;;;;;5126765;27;20043;-83
2022/08/07 08:55:05;;;;;;;1.15;1.00;;;23.00;72.80;;;;;;5123576;27;20015;-80
2022/08/07 08:57:37;;;;;;;;;;;23.00;72.60;;;;;;5126446;27;20042;-78
2022/08/07 09:00:08;;;;;;;3.05;0.90;;;23.10;72.30;;;;;;5125240;27;19966;-76
2022/08/07 09:03:00;;;;;;;1.70;0.90;;;23.20;70.70;;;;;;5127957;27;20023;-77
2022/08/07 09:05:45;;;;;;;1.00;0.75;;;23.30;69.40;;;;;;5126596;27;20042;-77
2022/08/07 09:08:20;;;;;;;2.50;0.70;;;23.30;68.20;;;;;;5131764;27;20058;-77
2022/08/07 09:10:50;;;;;;;3.08;0.60;;;23.40;67.60;;;;;;5130339;27;20078;-77
2022/08/07 09:13:25;;;;;;;3.22;0.82;;;23.40;68.30;;;;;;5132215;27;20031;-77
2022/08/07 09:16:18;;;;;;;1.10;0.70;;;23.40;68.00;;;;;;5132494;27;20023;-75
2022/08/07 09:19:16;;;;;;;0.73;0.70;;;23.50;67.90;;;;;;5122462;27;20518;-78
2022/08/07 09:21:57;;;;;;;1.30;0.90;;;23.50;66.70;;;;;;5129537;27;20019;-80
2022/08/07 09:24:47;;;;;;;1.02;0.77;;;23.50;66.40;;;;;;5131283;27;20038;-82
2022/08/07 09:27:31;;;;;;;1.65;0.80;;;23.50;66.40;;;;;;5125447;27;20486;-79
2022/08/07 09:30:04;;;;;;;0.82;0.68;;;23.60;66.10;;;;;;5131925;27;20037;-79
2022/08/07 09:33:03;;;;;;;2.75;2.40;;;23.60;66.50;;;;;;5112819;27;20019;-79
2022/08/07 09:35:40;;;;;;;2.72;1.30;;;23.70;65.50;;;;;;5130826;27;20023;-80
2022/08/07 09:38:23;;;;;;;1.92;0.90;;;23.70;65.60;;;;;;5113986;28;20384;-80
2022/08/07 09:41:13;;;;;;;1.17;0.80;;;23.80;65.10;;;;;;5130474;28;20031;-80
2022/08/07 09:44:02;;;;;;;0.73;0.73;;;24.10;64.10;;;;;;5130197;28;20072;-76
2022/08/07 09:47:16;;;;;;;3.03;0.70;;;24.20;63.60;;;;;;5122783;28;20425;-77
2022/08/07 09:49:53;;;;;;;1.83;0.60;;;24.20;63.20;;;;;;5122943;28;20031;-76
2022/08/07 09:52:51;;;;;;;1.50;0.68;;;24.40;62.90;;;;;;5131829;28;20023;-78
2022/08/07 09:55:21;;;;;;;1.80;0.63;;;24.50;62.40;;;;;;5129566;27;20035;-77
2022/08/07 09:58:11;;;;;;;1.00;0.90;;;24.50;62.70;;;;;;5131808;28;20114;-77
2022/08/07 10:00:57;;;;;;;;;;;24.60;61.30;;;;;;5129647;28;20117;-76
2022/08/07 10:03:55;;;;;;;1.33;0.73;;;24.60;60.60;;;;;;5077900;27;19903;-83
2022/08/07 10:06:38;;;;;;;1.42;0.60;;;24.60;61.10;;;;;;5131328;28;20542;-80
2022/08/07 10:09:16;;;;;;;0.60;0.55;;;24.70;59.90;;;;;;5124193;28;20068;-79
2022/08/07 10:12:07;;;;;;;1.00;0.60;;;24.70;60.30;;;;;;5126830;28;20191;-76
2022/08/07 10:14:38;;;;;;;1.52;0.80;;;24.70;59.10;;;;;;5131218;28;20027;-77
2022/08/07 10:17:32;;;;;;;2.35;0.63;;;24.90;59.30;;;;;;5131581;28;20100;-78
2022/08/07 10:20:05;;;;;;;1.58;0.52;;;24.90;58.30;;;;;;5130275;28;20039;-81
2022/08/07 10:23:08;;;;;;;8.27;0.85;;;25.00;58.20;;;;;;5130372;28;20365;-80
2022/08/07 10:25:37;;;;;;;0.90;0.52;;;24.90;58.60;;;;;;5122893;27;20043;-80
2022/08/07 10:28:14;;;;;;;1.65;0.70;;;25.00;58.70;;;;;;5129045;27;20046;-82
2022/08/07 10:30:57;;;;;;;1.00;0.55;;;25.10;58.40;;;;;;5130382;28;20699;-81
2022/08/07 10:34:00;;;;;;;1.48;0.50;;;25.30;57.30;;;;;;5121718;28;20083;-78
2022/08/07 10:36:57;;;;;;;1.85;0.77;;;25.30;57.20;;;;;;5129029;27;20027;-81
2022/08/07 10:39:22;;;;;;;1.10;0.73;;;25.30;57.50;;;;;;5127059;28;20015;-77
2022/08/07 10:42:00;;;;;;;2.15;0.85;;;25.60;57.00;;;;;;5131300;28;20027;-80
2022/08/07 10:45:13;;;;;;;3.17;0.65;;;25.70;57.00;;;;;;5130435;28;20058;-80
2022/08/07 10:47:50;;;;;;;0.73;0.70;;;25.80;56.70;;;;;;5047877;28;20072;-81
2022/08/07 10:50:41;;;;;;;0.85;0.52;;;25.90;55.90;;;;;;5123305;27;20043;-78
2022/08/07 10:53:15;;;;;;;0.98;0.50;;;25.90;56.20;;;;;;5128341;27;20114;-75
2022/08/07 10:55:50;;;;;;;0.88;0.60;;;26.00;56.60;;;;;;5131874;27;20047;-81
2022/08/07 10:58:54;;;;;;;1.10;0.70;;;26.00;56.50;;;;;;5134639;27;20031;-79
2022/08/07 11:01:26;;;;;;;2.15;0.60;;;26.10;56.30;;;;;;5129534;27;20503;-81
2022/08/07 11:04:02;;;;;;;1.60;0.57;;;26.20;56.40;;;;;;5131079;27;20023;-79
2022/08/07 11:06:59;;;;;;;2.40;0.75;;;26.30;56.20;;;;;;5134871;27;20383;-80
2022/08/07 11:09:30;;;;;;;2.15;0.93;;;26.50;56.10;;;;;;5128368;27;20055;-82
2022/08/07 11:12:02;;;;;;;1.45;0.50;;;26.60;55.70;;;;;;5135090;27;20628;-81
2022/08/07 11:14:35;;;;;;;1.17;0.63;;;26.70;55.60;;;;;;5134021;27;20361;-85
2022/08/07 11:17:18;;;;;;;0.98;0.70;;;26.90;55.40;;;;;;5134778;27;20080;-79
2022/08/07 11:19:54;;;;;;;1.50;1.02;;;27.10;54.70;;;;;;5133761;27;20603;-77
2022/08/07 11:22:34;;;;;;;1.92;0.77;;;27.20;54.70;;;;;;5135520;27;20027;-80
2022/08/07 11:25:09;;;;;;;;;;;27.30;54.50;;;;;;5135031;27;20098;-80
2022/08/07 11:27:43;;;;;;;5.03;0.80;;;27.40;54.20;;;;;;5133191;27;19915;-80
2022/08/07 11:30:23;;;;;;;0.63;0.63;;;27.70;53.90;;;;;;5126117;27;20026;-81
2022/08/07 11:32:54;;;;;;;0.50;0.50;;;27.70;53.10;;;;;;5133602;27;20030;-84
2022/08/07 11:35:26;;;;;;;1.13;0.60;;;27.30;53.90;;;;;;5134309;27;20019;-81
2022/08/07 11:38:15;;;;;;;1.10;0.70;;;27.40;53.70;;;;;;5134247;27;20494;-84
2022/08/07 11:41:00;;;;;;;0.68;0.55;;;27.30;54.00;;;;;;5128269;27;20030;-86
2022/08/07 11:43:42;;;;;;;1.15;0.82;;;27.40;53.80;;;;;;5133556;27;20043;-84
2022/08/07 11:46:17;;;;;;;1.88;0.60;;;27.50;54.30;;;;;;5131922;27;20027;-84
2022/08/07 11:49:16;;;;;;;0.80;0.80;;;27.60;53.80;;;;;;5129659;27;20118;-86
2022/08/07 11:52:21;;;;;;;0.70;0.60;;;27.80;53.20;;;;;;5127510;27;20639;-84
2022/08/07 11:54:58;;;;;;;1.13;0.60;;;27.80;53.30;;;;;;5126053;27;20077;-85
2022/08/07 11:57:54;;;;;;;0.63;0.60;;;27.90;52.70;;;;;;5130742;27;20103;-82
2022/08/07 12:00:52;;;;;;;1.02;0.90;;;28.10;53.40;;;;;;5132661;27;20058;-83
2022/08/07 12:03:53;;;;;;;2.17;0.70;;;28.40;52.20;;;;;;5115119;27;20107;-84
2022/08/07 12:06:42;;;;;;;1.75;0.82;;;28.60;52.40;;;;;;5127538;27;20058;-83
2022/08/07 12:09:24;;;;;;;0.73;0.70;;;29.10;51.40;;;;;;5133022;27;20113;-83
2022/08/07 12:12:08;;;;;;;1.48;0.65;;;29.30;50.70;;;;;;5129694;27;20023;-88
2022/08/07 12:15:12;;;;;;;0.95;0.65;;;29.40;51.20;;;;;;5130363;27;20464;-83
2022/08/07 12:17:46;;;;;;;0.93;0.60;;;29.60;50.50;;;;;;5133241;27;20490;-82
2022/08/07 12:20:26;;;;;;;0.90;0.80;;;28.80;50.50;;;;;;5133138;27;20023;-82
2022/08/07 12:23:29;;;;;;;1.13;0.73;;;28.80;51.20;;;;;;5131999;27;20020;-83
2022/08/07 12:26:02;;;;;;;1.15;0.55;;;28.90;50.60;;;;;;5131423;27;20050;-81
2022/08/07 12:28:52;;;;;;;0.60;0.60;;;29.50;50.10;;;;;;5131494;27;20035;-81
2022/08/07 12:31:35;;;;;;;1.23;0.70;;;29.80;49.40;;;;;;5130524;27;20054;-82
2022/08/07 12:34:02;;;;;;;2.65;1.00;;;30.30;68.70;;;;;;5129613;27;20051;-82
2022/08/07 12:36:29;;;;;;;1.27;0.80;;;30.60;64.10;;;;;;5132035;27;20072;-82
2022/08/07 12:38:55;;;;;;;1.60;0.73;;;30.40;63.30;;;;;;5132976;27;20038;-82
2022/08/07 12:41:25;;;;;;;1.27;0.80;;;30.60;64.30;;;;;;5131982;27;20031;-82
2022/08/07 12:43:53;;;;;;;;;;;30.40;63.70;;;;;;5133043;27;20479;-81
2022/08/07 12:47:00;;;;;;;0.73;0.73;;;30.70;62.00;;;;;;5129724;27;20408;-81
2022/08/07 12:49:31;;;;;;;0.63;0.60;;;31.00;48.40;;;;;;5095682;27;20044;-81
2022/08/07 12:52:21;;;;;;;0.85;0.52;;;31.10;57.00;;;;;;5132610;27;20502;-81
2022/08/07 12:55:00;;;;;;;0.70;0.70;;;31.20;59.50;;;;;;5124487;27;20068;-82
2022/08/07 12:57:30;;;;;;;1.15;0.90;;;31.50;63.00;;;;;;5130448;27;20047;-81
2022/08/07 12:59:58;;;;;;;1.55;0.77;;;31.60;61.50;;;;;;5132685;27;20483;-81
2022/08/07 13:02:42;;;;;;;1.90;0.80;;;31.80;61.80;;;;;;5131934;27;20019;-80
2022/08/07 13:05:17;;;;;;;1.50;0.90;;;31.70;61.00;;;;;;5132303;27;20032;-81
2022/08/07 13:08:12;;;;;;;1.08;0.60;;;31.60;60.80;;;;;;5126076;27;20106;-81
2022/08/07 13:11:04;;;;;;;0.85;0.57;;;31.60;60.60;;;;;;5117951;27;20031;-81
2022/08/07 13:13:56;;;;;;;0.70;0.65;;;31.80;58.70;;;;;;5125283;27;20087;-85
2022/08/07 13:16:31;;;;;;;1.23;0.82;;;32.10;57.70;;;;;;5129865;27;20031;-76
2022/08/07 13:19:14;;;;;;;0.85;0.77;;;32.50;56.40;;;;;;5129074;27;20081;-81
2022/08/07 13:22:00;;;;;;;3.03;0.70;;;32.80;56.60;;;;;;5123941;27;20799;-79
2022/08/07 13:24:44;;;;;;;2.30;0.90;;;32.70;56.50;;;;;;5117298;27;20035;-78
2022/08/07 13:27:17;;;;;;;1.10;0.60;;;32.80;55.40;;;;;;5108504;28;20511;-80
2022/08/07 13:30:01;;;;;;;1.05;0.80;;;32.90;58.70;;;;;;5109506;28;20067;-79
2022/08/07 13:32:30;;;;;;;0.77;0.77;;;32.90;58.70;;;;;;5107837;28;20069;-79
2022/08/07 13:35:04;;;;;;;1.00;0.82;;;33.10;58.40;;;;;;5110616;28;20023;-80
2022/08/07 13:37:44;;;;;;;2.38;0.90;;;32.70;59.20;;;;;;5109710;28;20536;-79
2022/08/07 13:40:13;;;;;;;2.85;0.98;;;32.60;60.00;;;;;;5110734;28;20384;-81
2022/08/07 13:42:39;;;;;;;1.10;1.00;;;32.60;60.20;;;;;;5103334;28;20020;-78
2022/08/07 13:45:07;;;;;;;1.00;0.80;;;32.60;60.20;;;;;;5110317;28;20368;-80
2022/08/07 13:47:36;;;;;;;0.70;0.70;;;32.70;60.20;;;;;;5108391;28;20055;-78
2022/08/07 13:50:02;;;;;;;0.90;0.80;;;32.70;60.40;;;;;;5110665;28;20035;-81
2022/08/07 13:52:36;;;;;;;1.45;0.88;;;32.90;61.40;;;;;;5109707;28;20473;-79
2022/08/07 13:55:13;;;;;;;1.05;0.70;;;34.40;58.20;;;;;;5110783;28;20055;-81